createdAt,value
2022-10-07T00:01:06.026Z,2.20
2022-10-07T00:03:34.724Z,1.90
2022-10-07T00:06:05.704Z,2.03
2022-10-07T00:08:34.268Z,2.13
2022-10-07T00:11:06.491Z,1.70
2022-10-07T00:13:34.462Z,3.00
2022-10-07T00:16:08.035Z,1.40
2022-10-07T00:18:36.817Z,1.97
2022-10-07T00:21:06.018Z,2.17
2022-10-07T00:23:34.606Z,1.60
2022-10-07T00:26:03.701Z,1.73
2022-10-07T00:28:32.274Z,2.43
2022-10-07T00:31:01.299Z,1.80
2022-10-07T00:33:34.207Z,1.83
2022-10-07T00:36:01.983Z,2.03
2022-10-07T00:38:29.603Z,2.13
2022-10-07T00:40:57.161Z,1.80
2022-10-07T00:43:27.368Z,2.00
2022-10-07T00:45:58.959Z,1.80
2022-10-07T00:48:30.985Z,2.37
2022-10-07T00:51:02.523Z,1.90
2022-10-07T00:53:34.564Z,2.10
2022-10-07T00:56:03.323Z,1.57
2022-10-07T00:58:34.541Z,2.27
2022-10-07T01:01:02.601Z,2.27
2022-10-07T01:03:30.949Z,2.07
2022-10-07T01:05:59.867Z,2.17
2022-10-07T01:08:28.247Z,1.50
2022-10-07T01:11:13.898Z,1.47
2022-10-07T01:13:52.633Z,2.60
2022-10-07T01:16:26.128Z,1.93
2022-10-07T01:19:03.755Z,1.63
2022-10-07T01:21:41.838Z,1.83
2022-10-07T01:24:23.781Z,1.50
2022-10-07T01:27:02.779Z,2.33
2022-10-07T01:29:36.730Z,1.90
2022-10-07T01:32:11.041Z,1.30
2022-10-07T01:34:42.800Z,1.70
2022-10-07T01:37:16.175Z,1.90
2022-10-07T01:39:50.587Z,1.77
2022-10-07T01:42:20.557Z,1.70
2022-10-07T01:44:52.196Z,1.80
2022-10-07T01:47:19.881Z,1.93
2022-10-07T01:49:48.729Z,1.67
2022-10-07T01:52:34.232Z,2.17
2022-10-07T01:55:28.424Z,2.03
2022-10-07T01:58:10.639Z,1.57
2022-10-07T02:00:45.003Z,2.03
2022-10-07T02:03:39.397Z,2.00
2022-10-07T02:06:14.742Z,1.70
2022-10-07T02:08:48.812Z,1.57
2022-10-07T02:11:22.815Z,3.20
2022-10-07T02:14:04.611Z,1.30
2022-10-07T02:16:41.409Z,1.97
2022-10-07T02:19:14.196Z,1.60
2022-10-07T02:21:44.003Z,1.77
2022-10-07T02:24:13.459Z,1.60
2022-10-07T02:26:43.502Z,1.77
2022-10-07T02:29:15.400Z,1.80
2022-10-07T02:31:46.098Z,2.50
2022-10-07T02:34:19.922Z,1.80
2022-10-07T02:36:52.109Z,2.47
2022-10-07T02:39:19.819Z,2.70
2022-10-07T02:41:52.501Z,2.43
2022-10-07T02:44:31.000Z,1.60
2022-10-07T02:47:05.106Z,1.88
2022-10-07T02:49:38.380Z,1.80
2022-10-07T02:52:08.750Z,2.23
2022-10-07T02:54:42.645Z,1.73
2022-10-07T02:57:12.014Z,1.90
2022-10-07T02:59:43.269Z,2.73
2022-10-07T03:02:16.286Z,3.27
2022-10-07T03:04:45.045Z,2.63
2022-10-07T03:07:13.863Z,2.00
2022-10-07T03:09:42.732Z,1.90
2022-10-07T03:12:12.525Z,3.77
2022-10-07T03:14:41.720Z,2.27
2022-10-07T03:17:09.934Z,2.43
2022-10-07T03:19:38.010Z,1.87
2022-10-07T03:22:05.829Z,2.20
2022-10-07T03:24:35.465Z,1.87
2022-10-07T03:27:05.518Z,2.17
2022-10-07T03:29:35.096Z,1.70
2022-10-07T03:32:05.403Z,1.97
2022-10-07T03:34:34.317Z,1.97
2022-10-07T03:37:03.699Z,2.07
2022-10-07T03:39:31.504Z,2.30
2022-10-07T03:42:00.175Z,2.30
2022-10-07T03:44:27.820Z,1.80
2022-10-07T03:46:57.008Z,1.93
2022-10-07T03:49:27.700Z,1.53
2022-10-07T03:51:56.068Z,2.20
2022-10-07T03:54:23.897Z,2.07
2022-10-07T03:56:51.954Z,2.30
2022-10-07T03:59:19.633Z,1.80
2022-10-07T04:01:48.137Z,2.37
2022-10-07T04:04:16.290Z,2.67
2022-10-07T04:06:46.319Z,1.90
2022-10-07T04:09:15.891Z,2.10
2022-10-07T04:11:44.423Z,2.90
2022-10-07T04:14:13.011Z,3.20
2022-10-07T04:16:41.782Z,2.30
2022-10-07T04:19:11.781Z,1.77
2022-10-07T04:21:39.387Z,2.33
2022-10-07T04:24:09.453Z,2.10
2022-10-07T04:26:38.270Z,1.97
2022-10-07T04:29:05.893Z,2.17
2022-10-07T04:31:33.738Z,2.23
2022-10-07T04:34:06.773Z,1.58
2022-10-07T04:36:38.745Z,1.80
2022-10-07T04:39:11.901Z,2.07
2022-10-07T04:41:44.308Z,2.40
2022-10-07T04:44:17.247Z,2.40
2022-10-07T04:46:54.046Z,1.97
2022-10-07T04:49:21.864Z,3.00
2022-10-07T04:51:49.706Z,2.43
2022-10-07T04:54:19.920Z,3.43
2022-10-07T04:56:52.711Z,2.10
2022-10-07T04:59:27.935Z,1.90
2022-10-07T05:01:57.703Z,2.20
2022-10-07T05:04:25.747Z,2.45
2022-10-07T05:06:54.548Z,1.83
2022-10-07T05:09:23.734Z,2.63
2022-10-07T05:11:55.518Z,2.80
2022-10-07T05:14:24.008Z,1.80
2022-10-07T05:16:53.339Z,2.07
2022-10-07T05:19:23.841Z,1.80
2022-10-07T05:21:51.504Z,2.47
2022-10-07T05:24:20.236Z,2.17
2022-10-07T05:26:51.783Z,2.40
2022-10-07T05:29:19.478Z,2.67
2022-10-07T05:31:50.684Z,3.30
2022-10-07T05:34:21.579Z,2.50
2022-10-07T05:36:49.323Z,2.50
2022-10-07T05:39:17.892Z,2.42
2022-10-07T05:42:13.301Z,2.23
2022-10-07T05:44:46.110Z,2.27
2022-10-07T05:47:15.753Z,2.60
2022-10-07T05:49:43.451Z,2.17
2022-10-07T05:52:11.413Z,1.83
2022-10-07T05:54:40.092Z,3.00
2022-10-07T05:57:10.777Z,2.47
2022-10-07T05:59:38.439Z,3.60
2022-10-07T06:02:06.537Z,2.50
2022-10-07T06:04:34.409Z,3.07
2022-10-07T06:07:05.294Z,2.10
2022-10-07T06:09:51.039Z,3.05
2022-10-07T06:12:38.344Z,2.63
2022-10-07T06:15:11.825Z,2.17
2022-10-07T06:17:44.546Z,2.50
2022-10-07T06:20:15.078Z,2.20
2022-10-07T06:22:44.094Z,2.73
2022-10-07T06:25:13.737Z,2.97
2022-10-07T06:27:45.077Z,3.60
2022-10-07T06:30:14.763Z,3.00
2022-10-07T06:32:42.429Z,2.70
2022-10-07T06:35:10.405Z,2.40
2022-10-07T06:37:39.354Z,3.57
2022-10-07T06:40:09.329Z,2.80
2022-10-07T06:42:36.945Z,3.10
2022-10-07T06:45:32.586Z,3.50
2022-10-07T06:48:00.843Z,2.90
2022-10-07T06:50:29.345Z,3.33
2022-10-07T06:52:57.326Z,3.23
2022-10-07T06:55:26.744Z,3.00
2022-10-07T06:57:55.232Z,2.80
2022-10-07T07:00:23.187Z,2.93
2022-10-07T07:02:53.411Z,3.40
2022-10-07T07:05:21.089Z,3.63
2022-10-07T07:07:49.564Z,3.57
2022-10-07T07:10:17.920Z,3.47
2022-10-07T07:12:49.796Z,2.63
2022-10-07T07:15:18.585Z,2.77
2022-10-07T07:17:46.705Z,2.80
2022-10-07T07:20:16.602Z,3.00
2022-10-07T07:22:44.519Z,3.20
2022-10-07T07:25:12.854Z,3.30
2022-10-07T07:27:41.152Z,3.17
2022-10-07T07:30:11.573Z,2.83
2022-10-07T07:32:40.059Z,3.00
2022-10-07T07:35:09.255Z,3.10
2022-10-07T07:37:38.627Z,3.50
2022-10-07T07:40:06.976Z,2.65
2022-10-07T07:42:35.492Z,2.87
2022-10-07T07:45:03.554Z,2.75
2022-10-07T07:47:34.080Z,2.57
2022-10-07T07:50:02.151Z,3.33
2022-10-07T07:52:33.832Z,3.00
2022-10-07T07:55:05.136Z,3.22
2022-10-07T07:57:33.123Z,2.90
2022-10-07T08:00:07.568Z,3.00
2022-10-07T08:02:53.734Z,2.77
2022-10-07T08:05:24.042Z,2.90
2022-10-07T08:07:54.857Z,2.00
2022-10-07T08:10:25.580Z,2.40
2022-10-07T08:12:53.340Z,2.80
2022-10-07T08:15:20.976Z,2.60
2022-10-07T08:17:48.794Z,2.47
2022-10-07T08:20:16.684Z,3.00
2022-10-07T08:22:46.081Z,2.20
2022-10-07T08:25:15.157Z,4.00
2022-10-07T08:27:44.695Z,1.80
2022-10-07T08:30:14.165Z,2.57
2022-10-07T08:32:41.813Z,2.30
2022-10-07T08:35:10.188Z,1.73
2022-10-07T08:37:37.884Z,2.00
2022-10-07T08:40:06.553Z,2.00
2022-10-07T08:42:38.309Z,2.57
2022-10-07T08:45:13.351Z,1.80
2022-10-07T08:47:44.830Z,2.80
2022-10-07T08:50:19.886Z,2.17
2022-10-07T08:52:51.184Z,1.83
2022-10-07T08:55:26.851Z,1.88
2022-10-07T08:58:10.542Z,2.10
2022-10-07T09:00:46.724Z,2.20
2022-10-07T09:03:25.506Z,2.07
2022-10-07T09:05:57.096Z,2.20
2022-10-07T09:08:31.112Z,2.67
2022-10-07T09:11:15.649Z,2.10
2022-10-07T09:13:48.028Z,2.50
2022-10-07T09:16:23.068Z,2.67
2022-10-07T09:18:54.827Z,2.47
2022-10-07T09:21:32.223Z,1.87
2022-10-07T09:24:17.182Z,2.05
2022-10-07T09:26:44.727Z,2.70
2022-10-07T09:29:12.531Z,1.90
2022-10-07T09:31:41.473Z,2.07
2022-10-07T09:34:19.487Z,1.90
2022-10-07T09:37:27.658Z,1.90
2022-10-07T09:39:57.941Z,2.15
2022-10-07T09:42:34.826Z,2.23
2022-10-07T09:45:05.122Z,2.60
2022-10-07T09:47:40.289Z,2.10
2022-10-07T09:50:38.016Z,1.80
2022-10-07T09:53:06.342Z,2.28
2022-10-07T09:55:42.095Z,2.30
2022-10-07T09:58:18.580Z,1.70
2022-10-07T10:00:48.176Z,1.60
2022-10-07T10:03:18.444Z,1.60
2022-10-07T10:05:57.360Z,1.90
2022-10-07T10:08:28.890Z,2.03
2022-10-07T10:10:57.799Z,1.90
2022-10-07T10:13:31.794Z,1.80
2022-10-07T10:16:00.953Z,3.17
2022-10-07T10:18:34.084Z,2.10
2022-10-07T10:21:36.665Z,2.10
2022-10-07T10:24:07.250Z,1.63
2022-10-07T10:26:48.709Z,2.55
2022-10-07T10:29:26.441Z,2.23
2022-10-07T10:32:11.257Z,1.90
2022-10-07T10:34:51.012Z,1.85
2022-10-07T10:37:22.147Z,1.90
2022-10-07T10:39:59.159Z,1.93
2022-10-07T10:42:38.777Z,1.90
2022-10-07T10:45:16.030Z,1.93
2022-10-07T10:48:03.781Z,1.57
2022-10-07T10:50:43.234Z,1.90
2022-10-07T10:53:23.543Z,1.97
2022-10-07T10:56:12.560Z,1.80
2022-10-07T10:58:54.225Z,2.00
2022-10-07T11:01:31.632Z,3.10
2022-10-07T11:04:29.544Z,2.60
2022-10-07T11:07:01.844Z,2.13
2022-10-07T11:09:38.567Z,1.77
2022-10-07T11:12:16.930Z,2.23
2022-10-07T11:14:48.406Z,2.10
2022-10-07T11:17:17.842Z,2.70
2022-10-07T11:19:58.701Z,2.40
2022-10-07T11:22:35.455Z,2.90
2022-10-07T11:25:09.964Z,1.70
2022-10-07T11:27:38.382Z,1.80
2022-10-07T11:30:08.945Z,1.60
2022-10-07T11:32:46.401Z,2.63
2022-10-07T11:35:25.568Z,2.20
2022-10-07T11:38:03.802Z,2.50
2022-10-07T11:40:34.838Z,3.17
2022-10-07T11:43:09.021Z,2.10
2022-10-07T11:45:52.207Z,1.90
2022-10-07T11:48:26.554Z,1.60
2022-10-07T11:50:59.747Z,2.20
2022-10-07T11:53:32.631Z,2.30
2022-10-07T11:56:02.874Z,1.97
2022-10-07T11:58:34.310Z,1.55
2022-10-07T12:01:40.725Z,1.38
2022-10-07T12:04:25.791Z,1.73
2022-10-07T12:07:31.128Z,1.60
2022-10-07T12:10:21.849Z,2.60
2022-10-07T12:12:52.453Z,2.00
2022-10-07T12:15:35.772Z,1.70
2022-10-07T12:18:28.972Z,2.07
2022-10-07T12:21:09.327Z,2.43
2022-10-07T12:23:47.296Z,2.03
2022-10-07T12:26:52.993Z,1.80
2022-10-07T12:29:31.985Z,2.47
2022-10-07T12:31:59.992Z,2.03
2022-10-07T12:34:37.792Z,1.97
2022-10-07T12:37:38.698Z,2.50
2022-10-07T12:40:12.665Z,2.47
2022-10-07T12:42:48.456Z,3.60
2022-10-07T12:45:16.737Z,2.13
2022-10-07T12:47:45.129Z,1.37
2022-10-07T12:50:18.845Z,2.10
2022-10-07T12:52:51.392Z,2.10
2022-10-07T12:55:25.797Z,2.67
2022-10-07T12:58:20.257Z,2.00
2022-10-07T13:01:15.740Z,1.87
2022-10-07T13:04:01.043Z,1.97
2022-10-07T13:07:04.991Z,1.60
2022-10-07T13:10:01.039Z,2.30
2022-10-07T13:12:39.381Z,1.53
2022-10-07T13:15:19.036Z,1.73
2022-10-07T13:17:55.312Z,2.00
2022-10-07T13:20:38.843Z,2.13
2022-10-07T13:23:15.120Z,2.43
2022-10-07T13:25:50.257Z,2.20
2022-10-07T13:28:22.288Z,2.40
2022-10-07T13:30:53.001Z,2.00
2022-10-07T13:33:30.469Z,2.43
2022-10-07T13:36:12.415Z,1.77
2022-10-07T13:38:40.327Z,1.83
2022-10-07T13:41:14.843Z,1.67
2022-10-07T13:43:44.998Z,2.00
2022-10-07T13:46:16.810Z,1.70
2022-10-07T13:48:46.482Z,1.90
2022-10-07T13:51:24.935Z,2.00
2022-10-07T13:53:55.782Z,1.57
2022-10-07T13:56:27.028Z,2.20
2022-10-07T13:58:57.045Z,1.63
2022-10-07T14:01:29.001Z,1.98
2022-10-07T14:04:20.752Z,1.47
2022-10-07T14:06:55.920Z,2.47
2022-10-07T14:09:33.811Z,1.60
2022-10-07T14:12:04.773Z,1.47
2022-10-07T14:14:36.684Z,1.43
2022-10-07T14:17:12.579Z,1.50
2022-10-07T14:19:40.757Z,1.50
2022-10-07T14:22:19.446Z,1.53
2022-10-07T14:24:55.537Z,1.50
2022-10-07T14:28:11.357Z,1.87
2022-10-07T14:30:59.223Z,1.50
2022-10-07T14:33:54.586Z,1.60
2022-10-07T14:36:23.681Z,1.47
2022-10-07T14:38:52.777Z,1.40
2022-10-07T14:41:23.409Z,1.30
2022-10-07T14:43:52.864Z,2.13
2022-10-07T14:46:22.641Z,2.00
2022-10-07T14:48:53.588Z,1.67
2022-10-07T14:51:25.648Z,2.00
2022-10-07T14:53:57.283Z,1.13
2022-10-07T14:56:28.299Z,1.77
2022-10-07T14:58:56.271Z,1.23
2022-10-07T15:01:24.200Z,1.77
2022-10-07T15:03:53.226Z,1.50
2022-10-07T15:06:21.688Z,1.53
2022-10-07T15:08:50.863Z,1.60
2022-10-07T15:11:20.912Z,1.90
2022-10-07T15:13:50.059Z,1.70
2022-10-07T15:16:19.886Z,1.10
2022-10-07T15:18:52.151Z,1.33
2022-10-07T15:21:23.238Z,1.87
2022-10-07T15:23:52.536Z,1.70
2022-10-07T15:26:23.518Z,1.87
2022-10-07T15:28:52.329Z,1.70
2022-10-07T15:31:19.963Z,1.53
2022-10-07T15:33:48.264Z,1.93
2022-10-07T15:36:19.156Z,1.90
2022-10-07T15:38:48.297Z,1.40
2022-10-07T15:41:29.962Z,1.50
2022-10-07T15:43:58.773Z,2.10
2022-10-07T15:46:27.795Z,1.87
2022-10-07T15:48:56.935Z,1.30
2022-10-07T15:51:25.870Z,1.30
2022-10-07T15:53:55.297Z,2.00
2022-10-07T15:56:23.144Z,1.57
2022-10-07T15:58:50.715Z,1.77
2022-10-07T16:01:18.418Z,2.10
2022-10-07T16:03:48.124Z,1.70
2022-10-07T16:06:18.562Z,1.70
2022-10-07T16:08:46.214Z,1.70
2022-10-07T16:11:15.940Z,2.90
2022-10-07T16:13:46.927Z,1.77
2022-10-07T16:16:16.715Z,1.77
2022-10-07T16:18:46.431Z,2.20
2022-10-07T16:21:15.850Z,2.07
2022-10-07T16:23:45.661Z,1.80
2022-10-07T16:26:16.689Z,2.20
2022-10-07T16:29:03.446Z,2.10
2022-10-07T16:31:32.382Z,1.70
2022-10-07T16:34:00.261Z,1.80
2022-10-07T16:36:28.109Z,2.63
2022-10-07T16:38:57.800Z,2.97
2022-10-07T16:41:27.268Z,2.60
2022-10-07T16:43:57.052Z,3.07
2022-10-07T16:46:25.716Z,2.90
2022-10-07T16:48:53.507Z,2.80
2022-10-07T16:51:23.172Z,2.53
2022-10-07T16:53:55.471Z,2.20
2022-10-07T16:56:23.962Z,2.57
2022-10-07T16:58:57.654Z,2.90
2022-10-07T17:01:27.474Z,2.43
2022-10-07T17:03:56.742Z,2.50
2022-10-07T17:06:25.706Z,1.97
2022-10-07T17:08:55.744Z,3.17
2022-10-07T17:11:30.710Z,1.73
2022-10-07T17:14:01.364Z,1.83
2022-10-07T17:16:31.164Z,1.40
2022-10-07T17:18:59.134Z,1.80
2022-10-07T17:21:27.911Z,1.93
2022-10-07T17:23:58.302Z,2.23
2022-10-07T17:26:27.645Z,1.80
2022-10-07T17:29:01.963Z,1.93
2022-10-07T17:31:30.773Z,2.60
2022-10-07T17:33:59.512Z,1.60
2022-10-07T17:36:27.945Z,2.40
2022-10-07T17:38:56.095Z,1.53
2022-10-07T17:41:25.681Z,1.80
2022-10-07T17:43:55.993Z,1.83
2022-10-07T17:46:26.007Z,2.50
2022-10-07T17:48:55.553Z,2.33
2022-10-07T17:51:27.209Z,1.90
2022-10-07T17:53:55.894Z,1.60
2022-10-07T17:56:24.101Z,2.50
2022-10-07T17:58:51.750Z,2.45
2022-10-07T18:01:23.780Z,1.90
2022-10-07T18:03:54.533Z,2.50
2022-10-07T18:06:23.704Z,3.07
2022-10-07T18:08:51.762Z,2.80
2022-10-07T18:11:19.346Z,2.70
2022-10-07T18:14:04.813Z,2.80
2022-10-07T18:16:33.275Z,3.00
2022-10-07T18:19:02.881Z,2.17
2022-10-07T18:21:32.349Z,2.27
2022-10-07T18:24:00.233Z,2.60
2022-10-07T18:26:28.967Z,2.50
2022-10-07T18:28:57.534Z,2.60
2022-10-07T18:31:26.286Z,1.70
2022-10-07T18:33:53.974Z,1.77
2022-10-07T18:36:23.105Z,2.13
2022-10-07T18:38:50.836Z,2.53
2022-10-07T18:41:18.844Z,1.83
2022-10-07T18:43:47.083Z,3.70
2022-10-07T18:46:16.815Z,3.28
2022-10-07T18:48:47.923Z,2.43
2022-10-07T18:51:16.384Z,2.80
2022-10-07T18:53:47.608Z,2.03
2022-10-07T18:56:18.742Z,2.67
2022-10-07T18:58:48.537Z,2.80
2022-10-07T19:01:17.865Z,3.47
2022-10-07T19:03:46.256Z,2.87
2022-10-07T19:06:16.258Z,3.97
2022-10-07T19:08:46.012Z,3.47
2022-10-07T19:11:16.502Z,3.13
2022-10-07T19:13:51.870Z,2.70
2022-10-07T19:16:21.336Z,4.20
2022-10-07T19:18:50.996Z,2.80
2022-10-07T19:21:20.011Z,3.10
2022-10-07T19:23:49.815Z,2.83
2022-10-07T19:26:21.555Z,3.27
2022-10-07T19:28:50.720Z,3.97
2022-10-07T19:31:23.132Z,2.90
2022-10-07T19:33:52.537Z,3.80
2022-10-07T19:36:21.778Z,3.77
2022-10-07T19:38:53.302Z,2.97
2022-10-07T19:41:22.778Z,3.30
2022-10-07T19:43:52.872Z,3.30
2022-10-07T19:46:22.458Z,3.33
2022-10-07T19:48:50.275Z,2.83
2022-10-07T19:51:19.824Z,3.53
2022-10-07T19:53:47.899Z,3.23
2022-10-07T19:56:20.132Z,2.93
2022-10-07T19:58:49.154Z,3.50
2022-10-07T20:01:18.403Z,3.37
2022-10-07T20:03:46.407Z,3.80
2022-10-07T20:06:14.824Z,3.20
2022-10-07T20:08:44.593Z,3.60
2022-10-07T20:11:12.533Z,3.40
2022-10-07T20:13:42.176Z,3.20
2022-10-07T20:16:13.596Z,3.50
2022-10-07T20:18:42.516Z,3.97
2022-10-07T20:21:12.333Z,3.57
2022-10-07T20:23:41.699Z,4.53
2022-10-07T20:26:10.950Z,4.63
2022-10-07T20:28:38.925Z,3.90
2022-10-07T20:31:10.332Z,4.97
2022-10-07T20:33:39.904Z,3.83
2022-10-07T20:36:08.385Z,4.87
2022-10-07T20:38:50.262Z,3.03
2022-10-07T20:41:35.637Z,4.30
2022-10-07T20:44:03.328Z,3.77
2022-10-07T20:46:32.514Z,5.27
2022-10-07T20:49:00.589Z,4.60
2022-10-07T20:51:28.130Z,3.90
2022-10-07T20:53:55.651Z,3.77
2022-10-07T20:56:23.572Z,4.20
2022-10-07T20:58:52.061Z,4.50
2022-10-07T21:01:20.124Z,5.20
2022-10-07T21:03:49.041Z,4.23
2022-10-07T21:06:19.010Z,3.63
2022-10-07T21:08:47.218Z,4.07
2022-10-07T21:11:16.379Z,4.07
2022-10-07T21:13:43.941Z,4.47
2022-10-07T21:16:11.560Z,4.50
2022-10-07T21:18:39.210Z,4.00
2022-10-07T21:21:10.261Z,4.50
2022-10-07T21:23:37.809Z,3.70
2022-10-07T21:26:07.087Z,3.73
2022-10-07T21:28:36.636Z,5.10
2022-10-07T21:31:08.186Z,4.00
2022-10-07T21:33:38.505Z,3.30
2022-10-07T21:36:10.832Z,3.57
2022-10-07T21:38:38.638Z,4.80
2022-10-07T21:41:13.289Z,4.40
2022-10-07T21:43:41.884Z,3.23
2022-10-07T21:46:09.589Z,3.27
2022-10-07T21:48:37.216Z,3.20
2022-10-07T21:51:09.550Z,3.40
2022-10-07T21:53:39.031Z,3.50
2022-10-07T21:56:08.395Z,3.20
2022-10-07T21:58:36.099Z,3.20
2022-10-07T22:01:03.972Z,4.27
2022-10-07T22:03:31.622Z,3.57
2022-10-07T22:06:03.068Z,3.10
2022-10-07T22:08:35.608Z,3.93
2022-10-07T22:11:07.050Z,2.77
2022-10-07T22:13:37.530Z,2.80
2022-10-07T22:16:07.379Z,2.72
2022-10-07T22:18:36.900Z,2.97
2022-10-07T22:21:12.458Z,2.93
2022-10-07T22:23:40.092Z,3.23
2022-10-07T22:26:12.913Z,2.77
2022-10-07T22:28:41.356Z,2.80
2022-10-07T22:31:10.723Z,2.80
2022-10-07T22:33:39.624Z,2.70
2022-10-07T22:36:08.157Z,2.10
2022-10-07T22:38:35.996Z,2.60
2022-10-07T22:41:03.954Z,2.00
2022-10-07T22:43:36.278Z,2.70
2022-10-07T22:46:04.718Z,2.50
2022-10-07T22:48:34.197Z,2.70
2022-10-07T22:51:06.498Z,2.50
2022-10-07T22:53:35.206Z,2.33
2022-10-07T22:56:04.075Z,2.43
2022-10-07T22:58:33.433Z,2.53
2022-10-07T23:01:03.831Z,2.90
2022-10-07T23:03:31.468Z,2.53
2022-10-07T23:06:00.972Z,2.00
2022-10-07T23:08:28.697Z,2.90
2022-10-07T23:10:57.086Z,2.40
2022-10-07T23:13:26.855Z,2.57
2022-10-07T23:16:00.605Z,2.40
2022-10-07T23:18:29.666Z,2.63
2022-10-07T23:21:01.165Z,2.55
2022-10-07T23:23:29.832Z,2.60
2022-10-07T23:25:57.699Z,2.17
2022-10-07T23:28:26.093Z,2.43
2022-10-07T23:30:54.182Z,2.73
2022-10-07T23:33:23.651Z,2.47
2022-10-07T23:35:56.449Z,2.50
2022-10-07T23:38:26.143Z,2.87
2022-10-07T23:40:54.123Z,2.30
2022-10-07T23:43:21.833Z,2.23
2022-10-07T23:45:51.022Z,2.80
2022-10-07T23:48:19.112Z,2.03
2022-10-07T23:50:50.104Z,2.23
2022-10-07T23:53:18.452Z,2.07
2022-10-07T23:55:48.356Z,2.27
2022-10-07T23:58:16.680Z,2.90
